Time;durP1;ratioP1;P1;durP2;ratioP2;P2;SDS_P1;SDS_P2;PMS_P1;PMS_P2;Temp;Humidity;BMP_temperature;BMP_pressure;BME280_temperature;BME280_humidity;BME280_pressure;Samples;Min_cycle;Max_cycle;Signal;HPM_P1;HPM_P2
2023/04/07 00:02:25;;;;;;;6.47;4.97;;;;;;;8.13;42.96;101761.69;6144085;28;20261;-72
2023/04/07 00:05:46;;;;;;;5.53;5.03;;;;;;;8.16;43.06;101763.25;6137330;28;20238;-71
2023/04/07 00:09:09;;;;;;;5.60;5.03;;;;;;;8.07;42.76;101764.03;6126257;28;20800;-72
2023/04/07 00:12:30;;;;;;;5.70;5.07;;;;;;;8.05;42.50;101760.69;6141828;28;20231;-72
2023/04/07 00:15:51;;;;;;;6.07;5.40;;;;;;;7.90;42.83;101757.56;6128382;28;20265;-74
2023/04/07 00:19:12;;;;;;;6.93;5.17;;;;;;;7.97;43.10;101753.44;6134538;28;20247;-72
2023/04/07 00:22:32;;;;;;;6.00;5.20;;;;;;;7.88;42.72;101752.44;6138144;28;20238;-73
2023/04/07 00:25:54;;;;;;;5.17;4.67;;;;;;;7.85;43.89;101751.88;6121437;28;20246;-71
2023/04/07 00:29:16;;;;;;;5.13;4.73;;;;;;;7.85;43.10;101757.94;6137894;28;20270;-72
2023/04/07 00:32:37;;;;;;;5.13;4.30;;;;;;;7.87;43.46;101760.47;6126467;28;20230;-72
2023/04/07 00:35:57;;;;;;;5.53;5.03;;;;;;;7.88;43.35;101752.44;6122998;28;20330;-72
2023/04/07 00:39:18;;;;;;;6.63;5.60;;;;;;;7.83;43.23;101759.88;6138345;28;22657;-73
2023/04/07 00:42:42;;;;;;;7.47;5.67;;;;;;;7.73;43.20;101751.06;6135648;28;20230;-72
2023/04/07 00:46:03;;;;;;;5.23;4.80;;;;;;;7.71;43.57;101757.41;6131262;28;20786;-72
2023/04/07 00:49:27;;;;;;;8.50;6.17;;;;;;;7.70;43.74;101753.13;6109580;28;20625;-72
2023/04/07 00:52:48;;;;;;;6.97;5.47;;;;;;;7.68;43.58;101753.25;6142494;28;20230;-72
2023/04/07 00:56:08;;;;;;;5.43;4.93;;;;;;;7.64;43.70;101759.75;6123952;28;20310;-73
2023/04/07 00:59:31;;;;;;;9.87;4.93;;;;;;;7.60;43.32;101757.50;6126564;28;20319;-73
2023/04/07 01:02:59;;;;;;;7.10;5.70;;;;;;;7.58;43.73;101752.34;6148625;28;20613;-73
2023/04/07 01:06:26;;;;;;;5.03;4.53;;;;;;;7.58;44.60;101747.09;6143753;28;20233;-73
2023/04/07 01:09:55;;;;;;;4.40;4.00;;;;;;;7.62;44.03;101747.69;6125221;28;20230;-72
2023/04/07 01:13:24;;;;;;;5.20;4.10;;;;;;;7.59;44.66;101747.94;6155940;28;20233;-73
2023/04/07 01:16:51;;;;;;;4.70;4.40;;;;;;;7.53;44.53;101755.34;6138939;28;20233;-74
2023/04/07 01:20:19;;;;;;;5.20;4.30;;;;;;;7.46;44.27;101755.97;6134059;28;20792;-74
2023/04/07 01:23:59;;;;;;;6.27;5.20;;;;;;;7.28;44.78;101752.22;6127331;28;22586;-73
2023/04/07 01:27:34;;;;;;;4.03;3.63;;;;;;;7.37;44.47;101751.50;6132301;28;20502;-72
2023/04/07 01:30:58;;;;;;;4.53;4.13;;;;;;;7.36;44.90;101747.19;6138961;28;20238;-72
2023/04/07 01:34:19;;;;;;;6.10;4.73;;;;;;;7.31;44.97;101752.00;6133873;28;20239;-73
2023/04/07 01:37:41;;;;;;;5.90;5.10;;;;;;;7.25;45.29;101757.72;6138243;28;20234;-72
2023/04/07 01:41:03;;;;;;;4.63;4.33;;;;;;;7.14;45.00;101748.94;6122366;28;20608;-73
2023/04/07 01:44:25;;;;;;;4.77;4.37;;;;;;;7.14;45.29;101748.13;6117726;28;20328;-72
2023/04/07 01:47:49;;;;;;;4.10;3.27;;;;;;;7.17;45.37;101756.59;6143210;28;20659;-73
2023/04/07 01:51:16;;;;;;;4.03;3.73;;;;;;;7.16;45.82;101757.53;6107624;28;20227;-73
2023/04/07 01:54:37;;;;;;;4.40;4.10;;;;;;;7.14;45.64;101748.13;6130827;28;20242;-72
2023/04/07 01:57:58;;;;;;;4.43;3.77;;;;;;;7.06;45.65;101755.75;6137608;28;20243;-72
2023/04/07 02:01:19;;;;;;;5.43;4.93;;;;;;;7.01;46.07;101758.75;6125282;28;20581;-72
2023/04/07 02:04:51;;;;;;;5.17;4.00;;;;;;;7.02;46.23;101754.34;6105507;28;20231;-72
2023/04/07 02:08:14;;;;;;;7.77;3.97;;;;;;;7.01;46.27;101753.50;6121662;28;20234;-73
2023/04/07 02:11:37;;;;;;;8.57;4.10;;;;;;;6.99;46.31;101758.06;6134338;28;20230;-73
2023/04/07 02:15:00;;;;;;;4.47;4.07;;;;;;;6.91;45.94;101755.22;6125711;28;20242;-72
2023/04/07 02:18:22;;;;;;;4.57;4.00;;;;;;;6.84;46.37;101760.09;6134785;28;20317;-72
2023/04/07 02:21:46;;;;;;;3.27;2.90;;;;;;;6.81;46.29;101757.72;6138263;28;20238;-72
2023/04/07 02:25:21;;;;;;;4.07;3.70;;;;;;;6.79;45.86;101756.16;6138286;28;20455;-72
2023/04/07 02:28:42;;;;;;;4.87;3.87;;;;;;;6.66;46.81;101758.09;6139453;28;20234;-73
2023/04/07 02:32:05;;;;;;;4.50;4.00;;;;;;;6.69;46.62;101766.56;6138794;28;22094;-73
2023/04/07 02:35:25;;;;;;;10.93;4.73;;;;;;;6.66;47.21;101760.72;6119094;28;20995;-72
2023/04/07 02:38:48;;;;;;;6.03;5.07;;;;;;;6.65;46.89;101764.31;6145103;28;20251;-72
2023/04/07 02:42:09;;;;;;;3.70;3.40;;;;;;;6.72;46.11;101770.75;6112853;28;20238;-73
2023/04/07 02:45:29;;;;;;;3.93;3.53;;;;;;;6.65;46.09;101774.78;6122932;28;20227;-73
2023/04/07 02:48:51;;;;;;;4.33;3.93;;;;;;;6.53;46.59;101784.47;6138969;28;20329;-72
2023/04/07 02:52:12;;;;;;;3.23;3.03;;;;;;;6.43;46.73;101773.84;6153973;28;20242;-72
2023/04/07 02:55:35;;;;;;;4.57;3.23;;;;;;;6.47;47.32;101771.81;6134941;28;20234;-73
2023/04/07 02:58:56;;;;;;;4.23;3.83;;;;;;;6.44;46.73;101772.91;6134314;28;20230;-73
2023/04/07 03:02:17;;;;;;;3.67;3.27;;;;;;;6.38;46.75;101780.41;6132778;28;20948;-72
2023/04/07 03:05:38;;;;;;;4.17;3.23;;;;;;;6.34;47.13;101778.94;6130594;28;20357;-72
2023/04/07 03:08:59;;;;;;;4.17;3.70;;;;;;;6.32;46.88;101779.09;6146168;28;20615;-72
2023/04/07 03:12:22;;;;;;;4.33;3.20;;;;;;;6.30;47.43;101778.38;6152628;28;21784;-73
2023/04/07 03:15:43;;;;;;;3.87;3.47;;;;;;;6.29;47.09;101784.56;6122055;28;20243;-72
2023/04/07 03:19:05;;;;;;;5.13;4.20;;;;;;;6.32;46.68;101779.09;6136020;28;22016;-72
2023/04/07 03:22:29;;;;;;;6.23;3.53;;;;;;;6.30;46.88;101777.53;6130202;28;20281;-73
2023/04/07 03:25:50;;;;;;;4.33;3.93;;;;;;;6.30;46.68;101778.38;6145078;28;20809;-73
2023/04/07 03:29:13;;;;;;;6.27;4.30;;;;;;;6.24;46.64;101786.72;6133870;28;21107;-72
2023/04/07 03:32:36;;;;;;;5.27;3.93;;;;;;;6.15;47.00;101788.22;6130176;28;20237;-71
2023/04/07 03:35:57;;;;;;;4.77;3.37;;;;;;;6.24;47.03;101788.50;6127524;28;20245;-73
2023/04/07 03:39:19;;;;;;;2.93;2.70;;;;;;;6.27;46.87;101785.63;6134157;28;20797;-73
2023/04/07 03:42:40;;;;;;;3.10;2.30;;;;;;;6.23;46.77;101787.66;6143807;28;20230;-72
2023/04/07 03:46:03;;;;;;;5.57;4.83;;;;;;;6.22;46.38;101793.84;6138289;28;20231;-72
2023/04/07 03:49:25;;;;;;;4.73;3.63;;;;;;;6.20;47.04;101794.91;6132399;28;20261;-72
2023/04/07 03:52:47;;;;;;;3.67;3.37;;;;;;;6.16;46.37;101797.75;6135192;28;20234;-72
2023/04/07 03:56:17;;;;;;;4.77;3.07;;;;;;;6.07;46.71;101808.97;6143646;28;20339;-72
2023/04/07 03:59:43;;;;;;;5.00;3.20;;;;;;;6.10;46.45;101807.91;6118127;28;20315;-73
2023/04/07 04:03:06;;;;;;;3.93;3.57;;;;;;;6.14;46.18;101802.28;6143507;28;20597;-73
2023/04/07 04:06:30;;;;;;;4.53;3.60;;;;;;;6.12;46.71;101800.72;6131700;28;20226;-73
2023/04/07 04:09:59;;;;;;;3.63;3.33;;;;;;;6.11;46.42;101805.13;6135865;28;20238;-73
2023/04/07 04:13:21;;;;;;;3.93;3.57;;;;;;;6.04;46.53;101810.97;6148163;28;20728;-73
2023/04/07 04:16:42;;;;;;;3.97;3.67;;;;;;;6.04;46.81;101803.94;6148074;28;20231;-72
2023/04/07 04:20:18;;;;;;;4.30;3.90;;;;;;;5.98;47.08;101812.25;6138940;28;20223;-73
2023/04/07 04:23:43;;;;;;;3.93;3.47;;;;;;;6.06;47.04;101816.94;6139534;28;20242;-72
2023/04/07 04:27:04;;;;;;;3.60;3.30;;;;;;;6.01;46.50;101817.28;6131207;28;20231;-71
2023/04/07 04:30:26;;;;;;;3.47;3.17;;;;;;;5.98;46.48;101819.28;6111574;28;20588;-72
2023/04/07 04:33:54;;;;;;;4.50;4.13;;;;;;;5.89;47.12;101825.19;6139103;28;20417;-72
2023/04/07 04:37:19;;;;;;;2.90;2.60;;;;;;;5.93;46.72;101824.88;6144200;28;21171;-72
2023/04/07 04:40:40;;;;;;;4.33;3.93;;;;;;;5.93;46.58;101837.13;6128966;28;20231;-73
2023/04/07 04:44:01;;;;;;;3.50;2.80;;;;;;;5.89;47.06;101825.19;6137610;28;20258;-73
2023/04/07 04:47:24;;;;;;;4.40;4.00;;;;;;;5.89;46.42;101831.28;6132002;28;20226;-72
2023/04/07 04:50:45;;;;;;;4.00;3.70;;;;;;;5.92;47.13;101838.06;6147361;28;20918;-73
2023/04/07 04:54:13;;;;;;;5.20;4.67;;;;;;;5.90;46.62;101845.22;6129014;28;20235;-73
2023/04/07 04:57:35;;;;;;;4.53;2.97;;;;;;;5.91;46.88;101845.09;6133624;28;20262;-72
2023/04/07 05:00:59;;;;;;;7.47;3.47;;;;;;;5.91;46.92;101850.34;6133640;28;20234;-72
2023/04/07 05:04:29;;;;;;;3.87;3.57;;;;;;;5.91;46.82;101847.72;6124648;28;20235;-72
2023/04/07 05:07:57;;;;;;;3.53;3.00;;;;;;;5.94;47.05;101852.75;6139002;28;20323;-73
2023/04/07 05:11:22;;;;;;;5.33;4.60;;;;;;;5.92;46.25;101854.63;6112314;28;20237;-73
2023/04/07 05:14:46;;;;;;;4.93;4.53;;;;;;;5.95;46.76;101869.31;6111310;28;20239;-73
2023/04/07 05:18:07;;;;;;;4.67;3.30;;;;;;;5.94;46.84;101865.00;6149645;28;20921;-72
2023/04/07 05:21:29;;;;;;;6.80;4.00;;;;;;;6.13;46.36;101868.75;6134675;28;20309;-73
2023/04/07 05:24:54;;;;;;;5.13;4.03;;;;;;;6.16;46.30;101878.19;6115205;28;20231;-72
2023/04/07 05:28:16;;;;;;;4.40;3.27;;;;;;;6.36;48.25;101874.06;6140490;28;20640;-71
2023/04/07 05:31:39;;;;;;;4.33;3.93;;;;;;;6.34;46.22;101876.81;6130426;28;20993;-73
2023/04/07 05:35:05;;;;;;;4.27;3.87;;;;;;;6.30;46.25;101879.78;6110132;28;20581;-73
2023/04/07 05:38:29;;;;;;;3.43;3.00;;;;;;;6.36;46.06;101887.19;6125193;28;20612;-73
2023/04/07 05:41:55;;;;;;;5.57;3.10;;;;;;;6.36;45.84;101882.78;6134174;28;20556;-73
2023/04/07 05:45:20;;;;;;;3.57;3.07;;;;;;;6.40;45.93;101892.09;6124776;28;20245;-74
2023/04/07 05:48:44;;;;;;;6.17;3.73;;;;;;;6.43;45.65;101893.63;6121738;28;20505;-73
2023/04/07 05:52:05;;;;;;;3.60;3.27;;;;;;;6.49;45.50;101894.03;6147302;28;20632;-72
2023/04/07 05:55:31;;;;;;;4.43;3.23;;;;;;;6.60;45.19;101901.06;6131749;28;20235;-73
2023/04/07 05:58:52;;;;;;;3.23;2.93;;;;;;;6.57;44.85;101909.16;6134813;28;20254;-73
2023/04/07 06:02:14;;;;;;;4.57;4.03;;;;;;;6.61;45.12;101905.34;6134630;28;20247;-73
2023/04/07 06:05:42;;;;;;;4.47;3.00;;;;;;;6.63;44.54;101910.50;6131845;28;20230;-73
2023/04/07 06:09:04;;;;;;;5.80;3.20;;;;;;;6.54;44.99;101916.44;6134870;28;20230;-72
2023/04/07 06:12:26;;;;;;;4.23;3.23;;;;;;;6.51;44.58;101909.66;6142669;28;20230;-72
2023/04/07 06:15:47;;;;;;;3.40;3.03;;;;;;;6.61;45.08;101912.38;6121021;28;21927;-73
2023/04/07 06:19:09;;;;;;;3.80;3.47;;;;;;;6.80;44.36;101917.91;6127333;28;20823;-72
2023/04/07 06:22:30;;;;;;;3.57;3.13;;;;;;;6.87;44.56;101929.59;6124717;28;20725;-72
2023/04/07 06:25:52;;;;;;;6.03;3.90;;;;;;;6.91;44.79;101928.41;6139087;28;20851;-72
2023/04/07 06:29:12;;;;;;;3.70;3.43;;;;;;;6.98;44.45;101928.78;6150877;28;20762;-71
2023/04/07 06:32:33;;;;;;;3.53;3.23;;;;;;;7.05;43.87;101937.84;6158124;28;20222;-72
2023/04/07 06:35:56;;;;;;;3.90;3.50;;;;;;;7.20;44.26;101942.75;6160061;28;20348;-72
2023/04/07 06:39:17;;;;;;;3.97;3.57;;;;;;;7.12;43.21;101950.38;6158907;28;20234;-70
2023/04/07 06:42:38;;;;;;;4.40;3.60;;;;;;;7.20;42.98;101944.56;6156322;28;20242;-72
2023/04/07 06:46:05;;;;;;;6.13;4.67;;;;;;;7.36;42.92;101947.63;6150604;28;20230;-72
2023/04/07 06:49:26;;;;;;;3.87;3.53;;;;;;;7.48;42.99;101951.06;6149852;28;20742;-72
2023/04/07 06:52:48;;;;;;;4.97;3.17;;;;;;;7.44;42.82;101947.88;6129053;28;20529;-70
2023/04/07 06:56:11;;;;;;;5.27;3.70;;;;;;;7.65;42.53;101947.97;6136446;28;20236;-71
2023/04/07 06:59:32;;;;;;;5.80;3.90;;;;;;;7.77;42.43;101949.59;6152372;28;20238;-70
2023/04/07 07:02:52;;;;;;;3.90;3.47;;;;;;;7.92;41.63;101952.78;6157808;28;20234;-70
2023/04/07 07:06:17;;;;;;;5.40;4.50;;;;;;;7.97;41.71;101965.56;6167922;28;20280;-70
2023/04/07 07:09:39;;;;;;;3.80;3.53;;;;;;;7.95;40.52;101947.28;6147784;28;20242;-71
2023/04/07 07:13:00;;;;;;;4.27;3.37;;;;;;;7.95;40.93;101957.78;6153329;28;20233;-71
2023/04/07 07:16:22;;;;;;;5.60;3.00;;;;;;;8.10;40.48;101956.56;6153546;28;20270;-71
2023/04/07 07:19:43;;;;;;;3.53;2.93;;;;;;;8.15;39.90;101956.16;6127953;28;20249;-74
2023/04/07 07:23:04;;;;;;;5.70;2.83;;;;;;;8.23;40.22;101956.38;6133280;28;21475;-73
2023/04/07 07:26:27;;;;;;;4.80;3.67;;;;;;;8.43;39.68;101950.34;6125821;28;20239;-74
2023/04/07 07:29:48;;;;;;;3.57;3.33;;;;;;;8.54;39.62;101960.81;6146720;28;20230;-74
2023/04/07 07:33:09;;;;;;;4.87;3.83;;;;;;;8.66;39.17;101963.38;6152750;28;22314;-70
2023/04/07 07:36:31;;;;;;;8.50;4.80;;;;;;;8.72;39.58;101962.88;6141406;28;20230;-69
2023/04/07 07:39:51;;;;;;;5.40;3.37;;;;;;;8.87;39.16;101969.47;6150763;28;20317;-70
2023/04/07 07:43:14;;;;;;;3.40;3.10;;;;;;;9.28;44.62;101971.19;6147286;28;21303;-69
2023/04/07 07:46:35;;;;;;;5.50;5.00;;;;;;;9.18;37.99;101971.16;6146556;28;21266;-70
2023/04/07 07:49:56;;;;;;;6.10;3.67;;;;;;;9.18;38.26;101978.25;6149677;28;20592;-70
2023/04/07 07:53:17;;;;;;;4.77;3.30;;;;;;;9.37;37.84;101978.31;6157312;28;20276;-69
2023/04/07 07:56:38;;;;;;;4.37;2.93;;;;;;;9.38;37.49;101984.41;6152232;28;20246;-70
2023/04/07 08:00:01;;;;;;;4.23;3.37;;;;;;;9.28;37.29;101981.72;6151911;28;20231;-70
2023/04/07 08:03:21;;;;;;;5.40;4.00;;;;;;;9.29;37.31;101986.03;6128522;28;20329;-69
2023/04/07 08:06:45;;;;;;;5.53;3.20;;;;;;;9.52;37.24;101994.59;6140849;28;20689;-69
2023/04/07 08:10:07;;;;;;;5.13;3.30;;;;;;;9.63;36.99;101986.59;6137955;28;20227;-70
2023/04/07 08:13:28;;;;;;;2.93;2.73;;;;;;;9.81;36.53;101992.06;6125874;28;20239;-69
2023/04/07 08:16:50;;;;;;;3.03;2.70;;;;;;;9.88;36.34;101993.19;6137556;28;20321;-70
2023/04/07 08:20:11;;;;;;;5.07;2.53;;;;;;;9.82;35.74;102001.63;6141419;28;20235;-69
2023/04/07 08:23:32;;;;;;;2.93;2.67;;;;;;;9.89;35.75;102000.13;6138541;28;20227;-68
2023/04/07 08:26:53;;;;;;;4.13;3.73;;;;;;;9.97;36.14;102008.19;6149439;28;20849;-69
2023/04/07 08:30:14;;;;;;;3.77;2.97;;;;;;;9.97;35.06;102010.81;6137767;28;20234;-69
2023/04/07 08:33:36;;;;;;;4.23;3.90;;;;;;;9.95;34.38;102003.03;6145979;28;20230;-68
2023/04/07 08:36:57;;;;;;;4.90;3.03;;;;;;;10.58;50.87;102008.00;6142109;28;20234;-68
2023/04/07 08:40:18;;;;;;;2.50;2.30;;;;;;;10.65;40.82;102008.25;6139307;28;20258;-69
2023/04/07 08:43:40;;;;;;;3.50;3.20;;;;;;;11.16;44.80;102024.56;6145019;28;20242;-70
2023/04/07 08:47:03;;;;;;;3.57;3.27;;;;;;;11.35;44.68;102006.97;6136878;28;20235;-71
2023/04/07 08:50:27;;;;;;;3.50;2.53;;;;;;;11.46;36.65;102005.00;6149246;28;20230;-72
2023/04/07 08:53:50;;;;;;;3.33;2.93;;;;;;;11.68;42.55;102001.13;6146638;28;20246;-71
2023/04/07 08:57:11;;;;;;;4.13;3.53;;;;;;;12.09;35.19;102007.75;6144928;28;20250;-70
2023/04/07 09:00:32;;;;;;;2.87;2.63;;;;;;;12.03;38.38;102002.22;6152602;28;20230;-71
2023/04/07 09:03:53;;;;;;;4.37;2.57;;;;;;;12.22;36.33;101991.47;6151311;28;20238;-71
2023/04/07 09:07:15;;;;;;;4.50;3.97;;;;;;;11.78;32.48;101995.81;6158283;28;20239;-73
2023/04/07 09:10:37;;;;;;;3.60;3.30;;;;;;;12.02;35.21;102001.38;6151147;28;20234;-70
2023/04/07 09:14:00;;;;;;;4.30;2.97;;;;;;;11.91;37.49;101997.13;6146014;28;20238;-71
2023/04/07 09:17:21;;;;;;;3.07;2.87;;;;;;;12.31;37.94;102003.81;6114572;28;20507;-71
2023/04/07 09:21:00;;;;;;;3.50;3.17;;;;;;;12.45;37.43;102008.56;6128618;28;20535;-71
2023/04/07 09:24:24;;;;;;;3.87;2.73;;;;;;;12.20;31.77;102002.22;6114062;28;20508;-71
2023/04/07 09:27:56;;;;;;;3.83;3.53;;;;;;;12.23;35.57;102006.38;6108094;28;20235;-72
2023/04/07 09:31:16;;;;;;;2.97;2.77;;;;;;;12.32;34.25;102001.03;6109957;28;22119;-71
2023/04/07 09:34:39;;;;;;;10.47;5.07;;;;;;;12.11;31.00;101991.72;6109081;28;20250;-70
2023/04/07 09:38:05;;;;;;;4.60;4.10;;;;;;;11.70;31.03;101991.25;6103397;28;21534;-71
2023/04/07 09:41:27;;;;;;;7.80;4.23;;;;;;;11.61;31.42;101982.38;6097007;28;20264;-70
2023/04/07 09:44:48;;;;;;;4.87;3.83;;;;;;;12.10;32.09;101990.03;6132358;28;20235;-70
2023/04/07 09:48:19;;;;;;;4.17;3.83;;;;;;;12.34;31.33;101987.63;6129924;28;20259;-71
2023/04/07 09:51:52;;;;;;;6.83;3.17;;;;;;;12.26;30.63;101991.03;6136257;28;20660;-70
2023/04/07 09:55:13;;;;;;;3.63;3.23;;;;;;;12.34;30.62;101987.63;6137674;28;20312;-71
2023/04/07 09:58:38;;;;;;;9.77;3.17;;;;;;;12.58;30.03;101985.19;6143406;28;20247;-71
2023/04/07 10:01:59;;;;;;;5.67;4.20;;;;;;;12.94;29.94;101985.94;6143064;28;20746;-71
2023/04/07 10:05:21;;;;;;;4.60;3.87;;;;;;;12.62;28.49;101988.38;6127764;28;20230;-71
2023/04/07 10:08:43;;;;;;;5.13;3.67;;;;;;;12.64;28.59;101991.69;6144934;28;20235;-71
2023/04/07 10:12:06;;;;;;;3.87;3.57;;;;;;;12.76;29.03;101994.91;6147118;28;20230;-72
2023/04/07 10:15:28;;;;;;;3.83;3.20;;;;;;;12.94;28.61;101985.09;6146414;28;20325;-71
2023/04/07 10:18:51;;;;;;;3.30;3.10;;;;;;;12.56;28.75;101988.97;6142178;28;20238;-70
2023/04/07 10:22:13;;;;;;;4.63;4.17;;;;;;;12.89;29.36;101987.38;6143503;28;20282;-71
2023/04/07 10:25:40;;;;;;;4.33;3.90;;;;;;;13.16;28.56;101986.44;6146405;28;20351;-71
2023/04/07 10:29:06;;;;;;;2.37;2.20;;;;;;;13.31;28.44;101988.34;6144600;28;20238;-71
2023/04/07 10:32:28;;;;;;;4.60;2.87;;;;;;;13.19;27.12;101994.06;6146734;28;20305;-72
2023/04/07 10:36:06;;;;;;;4.03;2.03;;;;;;;12.95;26.02;102002.66;6124593;28;20235;-71
2023/04/07 10:39:27;;;;;;;3.17;2.43;;;;;;;12.83;26.63;101999.47;6148865;28;20239;-72
2023/04/07 10:42:48;;;;;;;2.07;1.97;;;;;;;12.94;26.90;102001.00;6153187;28;20247;-71
2023/04/07 10:46:09;;;;;;;3.27;3.07;;;;;;;13.51;27.91;102004.03;6142851;28;20665;-71
2023/04/07 10:49:32;;;;;;;3.23;2.93;;;;;;;13.80;26.80;101995.66;6153788;28;20235;-70
2023/04/07 10:53:07;;;;;;;3.23;2.27;;;;;;;14.37;26.79;101994.78;6164841;28;20321;-71
2023/04/07 10:57:10;;;;;;;2.40;2.20;;;;;;;14.80;25.44;101992.81;6145623;28;20230;-71
2023/04/07 11:00:31;;;;;;;4.63;3.00;;;;;;;14.45;25.39;101996.66;6150374;28;20613;-70
2023/04/07 11:03:58;;;;;;;3.80;3.07;;;;;;;14.62;26.52;102000.13;6160134;28;20258;-71
2023/04/07 11:07:50;;;;;;;4.03;2.77;;;;;;;15.22;25.36;101994.38;6159584;28;20821;-70
2023/04/07 11:11:13;;;;;;;2.80;2.60;;;;;;;15.12;25.93;101993.75;6153057;28;20243;-71
2023/04/07 11:14:36;;;;;;;3.30;3.03;;;;;;;15.01;26.64;101992.28;6158125;28;20238;-71
2023/04/07 11:18:10;;;;;;;3.57;2.73;;;;;;;16.12;25.54;101990.31;6160624;28;20329;-72
2023/04/07 11:21:31;;;;;;;3.80;3.50;;;;;;;17.17;23.91;101985.09;6148896;28;20617;-70
2023/04/07 11:24:53;;;;;;;4.50;3.30;;;;;;;20.78;19.52;101975.25;6163834;28;20235;-71
2023/04/07 11:28:14;;;;;;;4.13;2.73;;;;;;;22.55;17.19;101987.28;6155270;28;21806;-71
2023/04/07 11:31:36;;;;;;;2.77;2.50;;;;;;;24.44;15.19;101982.50;6163664;28;20230;-71
2023/04/07 11:34:57;;;;;;;3.50;2.60;;;;;;;25.73;13.68;101968.91;6167143;28;20230;-71
2023/04/07 11:38:18;;;;;;;3.10;2.80;;;;;;;26.26;12.48;101987.41;6154028;28;20239;-70
2023/04/07 11:41:48;;;;;;;3.03;2.72;;;;;;;27.80;12.04;101986.63;6164660;28;20571;-71
2023/04/07 11:45:17;;;;;;;3.15;2.85;;;;;;;26.56;11.31;101977.13;6158425;28;20254;-71
2023/04/07 11:48:40;;;;;;;2.47;1.77;;;;;;;27.35;11.08;101990.41;6157504;28;20242;-71
2023/04/07 11:52:06;;;;;;;2.53;2.33;;;;;;;29.18;10.35;101981.19;6156464;28;20277;-72
2023/04/07 11:55:28;;;;;;;2.85;2.65;;;;;;;29.67;9.37;101989.81;6162203;28;20231;-70
2023/04/07 11:58:51;;;;;;;2.38;2.17;;;;;;;29.80;9.27;101985.78;6147625;28;20271;-71
2023/04/07 12:02:30;;;;;;;2.55;2.10;;;;;;;30.39;8.78;101982.56;6159634;28;20234;-71
2023/04/07 12:05:51;;;;;;;3.45;2.67;;;;;;;29.52;8.65;101987.88;6149967;28;20609;-71
2023/04/07 12:09:27;;;;;;;2.63;2.30;;;;;;;30.33;8.94;101984.47;6158201;28;20230;-70
2023/04/07 12:12:48;;;;;;;2.83;2.38;;;;;;;32.04;7.61;101994.28;6158586;28;20596;-70
2023/04/07 12:16:11;;;;;;;2.90;2.10;;;;;;;30.66;7.65;101988.56;6161897;28;20234;-70
2023/04/07 12:19:33;;;;;;;2.90;2.40;;;;;;;29.51;8.54;101985.44;6159568;28;20231;-70
2023/04/07 12:22:58;;;;;;;3.97;3.05;;;;;;;30.14;8.17;101983.38;6160174;28;20238;-71
2023/04/07 12:26:20;;;;;;;3.95;1.80;;;;;;;31.73;7.66;101980.81;6162162;28;20234;-70
2023/04/07 12:29:42;;;;;;;4.97;3.08;;;;;;;31.40;8.24;101993.28;6154915;28;20243;-70
2023/04/07 12:33:05;;;;;;;2.35;2.00;;;;;;;29.48;9.18;101994.94;6143303;28;20235;-71
2023/04/07 12:36:26;;;;;;;3.08;2.17;;;;;;;31.03;8.21;101988.19;6151183;28;20299;-70
2023/04/07 12:39:47;;;;;;;8.02;2.90;;;;;;;30.51;8.67;102000.25;6157377;28;20254;-71
2023/04/07 12:43:08;;;;;;;1.63;1.35;;;;;;;28.92;9.34;102000.09;6158233;28;20258;-70
2023/04/07 12:46:29;;;;;;;3.55;1.67;;;;;;;29.68;8.86;102005.06;6133059;28;20280;-70
2023/04/07 12:49:51;;;;;;;1.60;1.50;;;;;;;30.66;8.70;101998.66;6160772;28;20242;-70
2023/04/07 12:53:12;;;;;;;2.42;1.88;;;;;;;29.22;8.99;101993.19;6158938;28;20238;-70
2023/04/07 12:56:33;;;;;;;2.28;2.08;;;;;;;28.79;9.16;101994.28;6154885;28;20250;-70
2023/04/07 12:59:54;;;;;;;0.88;0.88;;;;;;;28.69;10.06;101997.75;6159271;28;20243;-71
2023/04/07 13:03:14;;;;;;;3.50;1.40;;;;;;;29.53;8.67;101994.97;6154756;28;20234;-72
2023/04/07 13:06:37;;;;;;;2.67;1.67;;;;;;;29.18;9.00;101997.50;6159992;28;20235;-70
2023/04/07 13:09:58;;;;;;;1.83;1.40;;;;;;;29.88;9.19;101988.78;6146144;28;20231;-70
2023/04/07 13:13:19;;;;;;;1.23;1.13;;;;;;;30.38;9.00;101978.22;6156352;28;21775;-70
2023/04/07 13:16:44;;;;;;;1.92;1.10;;;;;;;31.92;7.69;101992.69;6156843;28;20234;-70
2023/04/07 13:20:06;;;;;;;1.75;1.35;;;;;;;29.96;8.68;101978.44;6149067;28;20243;-70
2023/04/07 13:23:28;;;;;;;2.22;1.17;;;;;;;29.82;9.53;101980.91;6148634;28;20687;-70
2023/04/07 13:26:50;;;;;;;3.22;2.08;;;;;;;30.16;9.29;101983.94;6160223;28;20238;-71
2023/04/07 13:30:12;;;;;;;2.15;1.65;;;;;;;30.06;9.57;101973.84;6161730;28;20238;-71
2023/04/07 13:33:34;;;;;;;2.33;1.30;;;;;;;30.70;8.38;101988.84;6160776;28;20254;-71
2023/04/07 13:36:55;;;;;;;3.33;1.67;;;;;;;29.48;9.52;101991.41;6139816;28;20513;-70
2023/04/07 13:40:18;;;;;;;1.38;1.20;;;;;;;29.83;9.20;101987.94;6154250;28;20230;-70
2023/04/07 13:43:38;;;;;;;1.75;1.65;;;;;;;28.40;11.02;101993.72;6158198;28;20623;-71
2023/04/07 13:46:59;;;;;;;1.83;1.63;;;;;;;28.12;10.89;102001.06;6150993;28;20238;-71
2023/04/07 13:50:20;;;;;;;3.58;1.52;;;;;;;27.21;12.19;102003.53;6149605;28;20266;-70
2023/04/07 13:53:40;;;;;;;1.45;1.35;;;;;;;27.01;12.12;101997.84;6155940;28;20266;-71
2023/04/07 13:57:03;;;;;;;2.15;1.17;;;;;;;26.92;12.83;101999.31;6154120;28;20230;-71
2023/04/07 14:00:24;;;;;;;0.85;0.85;;;;;;;27.57;11.53;101996.69;6150777;28;20246;-69
2023/04/07 14:03:45;;;;;;;1.77;1.30;;;;;;;27.85;11.82;101986.66;6149467;28;20326;-70
2023/04/07 14:07:06;;;;;;;1.77;1.50;;;;;;;26.94;13.35;101989.03;6144135;28;20226;-70
2023/04/07 14:10:28;;;;;;;1.58;1.38;;;;;;;26.77;13.26;101986.38;6163048;28;20237;-70
2023/04/07 14:13:51;;;;;;;2.15;1.70;;;;;;;25.56;14.77;101982.31;6153052;28;20234;-70
2023/04/07 14:17:12;;;;;;;2.03;1.92;;;;;;;23.92;18.23;101984.13;6156468;28;20239;-70
2023/04/07 14:20:33;;;;;;;1.10;1.02;;;;;;;23.95;18.98;101990.94;6151140;28;20234;-71
2023/04/07 14:23:53;;;;;;;4.18;1.67;;;;;;;22.20;20.06;101989.59;6152853;28;20316;-71
2023/04/07 14:27:19;;;;;;;1.85;1.40;;;;;;;21.82;22.04;101991.25;6150890;28;20230;-70
2023/04/07 14:30:41;;;;;;;2.58;2.13;;;;;;;21.91;22.25;101982.94;6151952;28;20333;-70
2023/04/07 14:34:02;;;;;;;2.08;1.92;;;;;;;21.64;22.96;101990.31;6155810;28;20231;-69
2023/04/07 14:37:25;;;;;;;1.40;1.30;;;;;;;21.27;23.49;101997.25;6154951;28;20219;-71
2023/04/07 14:40:46;;;;;;;2.45;1.83;;;;;;;20.46;25.66;101995.69;6159290;28;20239;-70
2023/04/07 14:44:07;;;;;;;5.90;2.55;;;;;;;19.71;26.68;102015.47;6147819;28;20235;-70
2023/04/07 14:47:29;;;;;;;1.75;1.65;;;;;;;17.93;29.86;102010.53;6146202;28;20617;-69
2023/04/07 14:50:50;;;;;;;2.47;2.15;;;;;;;17.07;31.60;102026.22;6156968;28;20230;-70
2023/04/07 14:54:11;;;;;;;2.50;2.30;;;;;;;16.65;33.09;102024.09;6158268;28;20230;-70
2023/04/07 14:57:32;;;;;;;2.75;1.55;;;;;;;15.87;34.43;102026.91;6157298;28;20321;-70
2023/04/07 15:00:53;;;;;;;1.63;1.52;;;;;;;15.64;35.17;102023.38;6152704;28;20253;-69
2023/04/07 15:04:15;;;;;;;2.10;1.63;;;;;;;15.03;36.18;102030.16;6161256;28;20230;-70
2023/04/07 15:07:36;;;;;;;3.33;2.37;;;;;;;14.95;36.71;102036.31;6151949;28;20321;-68
2023/04/07 15:10:57;;;;;;;2.70;2.50;;;;;;;14.29;38.93;102045.22;6160550;28;20233;-70
2023/04/07 15:14:17;;;;;;;2.47;2.37;;;;;;;14.15;39.20;102037.06;6158293;28;20322;-70
2023/04/07 15:17:38;;;;;;;2.97;1.80;;;;;;;14.42;38.93;102041.31;6153756;28;20610;-70
2023/04/07 15:21:00;;;;;;;2.30;1.57;;;;;;;14.46;38.71;102042.66;6165252;28;20231;-70
2023/04/07 15:24:21;;;;;;;3.07;2.00;;;;;;;14.10;39.52;102055.31;6152115;28;20234;-70
2023/04/07 15:27:42;;;;;;;3.13;2.23;;;;;;;14.09;39.75;102059.78;6152016;28;20550;-69
2023/04/07 15:31:07;;;;;;;2.50;2.30;;;;;;;14.00;40.23;102058.13;6161627;28;20234;-70
2023/04/07 15:34:27;;;;;;;2.43;2.23;;;;;;;14.22;39.48;102054.03;6159500;28;20226;-70
2023/04/07 15:37:50;;;;;;;1.90;1.80;;;;;;;13.49;41.27;102067.00;6153293;28;20239;-71
2023/04/07 15:41:15;;;;;;;2.63;1.83;;;;;;;13.17;42.17;102065.81;6160206;28;20230;-70
2023/04/07 15:44:38;;;;;;;3.53;3.03;;;;;;;13.56;41.28;102073.31;6162148;28;20234;-70
2023/04/07 15:47:59;;;;;;;3.57;2.03;;;;;;;13.87;40.51;102069.16;6159707;28;20318;-70
2023/04/07 15:51:20;;;;;;;2.53;2.43;;;;;;;13.31;42.04;102078.53;6162382;28;20242;-70
2023/04/07 15:54:43;;;;;;;3.10;2.50;;;;;;;13.26;42.13;102075.50;6159305;28;20238;-70